Time;durP1;ratioP1;P1;durP2;ratioP2;P2;SDS_P1;SDS_P2;PMS_P1;PMS_P2;Temp;Humidity;BMP_temperature;BMP_pressure;BME280_temperature;BME280_humidity;BME280_pressure;Samples;Min_cycle;Max_cycle;Signal;HPM_P1;HPM_P2
2021/05/25 00:00:49;;;;;;;2.60;1.20;;;14.40;89.60;;;;;;5076106;28;20038;-70
2021/05/25 00:03:15;;;;;;;6.75;1.25;;;14.50;89.60;;;;;;5076217;28;20035;-69
2021/05/25 00:05:41;;;;;;;5.28;0.95;;;14.40;89.70;;;;;;5076111;28;20025;-69
2021/05/25 00:08:09;;;;;;;7.78;0.90;;;14.40;89.70;;;;;;5076049;28;20427;-69
2021/05/25 00:10:35;;;;;;;2.90;1.27;;;14.50;89.80;;;;;;5076192;28;20028;-70
2021/05/25 00:13:01;;;;;;;6.72;1.00;;;14.50;89.80;;;;;;5075924;28;20028;-70
2021/05/25 00:15:30;;;;;;;2.50;1.08;;;14.40;89.70;;;;;;5076089;28;20021;-70
2021/05/25 00:17:56;;;;;;;3.40;1.02;;;14.50;89.90;;;;;;5075492;28;20468;-70
2021/05/25 00:20:23;;;;;;;2.05;1.00;;;14.40;89.80;;;;;;5075641;28;20035;-70
2021/05/25 00:22:50;;;;;;;5.53;1.38;;;14.40;89.80;;;;;;5076134;28;20042;-70
2021/05/25 00:25:17;;;;;;;4.25;3.15;;;14.40;89.80;;;;;;5075658;28;20151;-70
2021/05/25 00:27:43;;;;;;;5.78;3.45;;;14.40;89.80;;;;;;5075492;28;20021;-70
2021/05/25 00:30:12;;;;;;;3.85;3.17;;;14.40;89.90;;;;;;5075652;28;20024;-70
2021/05/25 00:32:37;;;;;;;4.60;3.67;;;14.40;90.00;;;;;;5075736;28;20016;-70
2021/05/25 00:35:05;;;;;;;5.25;3.58;;;14.40;90.00;;;;;;5075744;28;20533;-70
2021/05/25 00:37:30;;;;;;;7.15;3.30;;;14.40;90.00;;;;;;5075354;28;20036;-70
2021/05/25 00:39:56;;;;;;;13.07;4.57;;;14.40;90.10;;;;;;5075346;28;20028;-70
2021/05/25 00:42:22;;;;;;;5.15;3.80;;;14.40;90.10;;;;;;5075573;28;20056;-70
2021/05/25 00:44:47;;;;;;;7.78;4.28;;;14.40;90.10;;;;;;5075420;28;20017;-70
2021/05/25 00:47:13;;;;;;;5.88;3.80;;;14.40;90.20;;;;;;5075371;28;20059;-70
2021/05/25 00:49:39;;;;;;;5.13;3.50;;;14.40;90.20;;;;;;5074887;28;20536;-70
2021/05/25 00:52:05;;;;;;;10.80;3.97;;;14.40;90.20;;;;;;5075341;28;20610;-69
2021/05/25 00:54:30;;;;;;;6.55;4.43;;;14.40;90.20;;;;;;5074986;28;20542;-70
2021/05/25 00:56:58;;;;;;;7.70;4.95;;;14.40;90.40;;;;;;5075149;28;20033;-70
2021/05/25 00:59:25;;;;;;;6.15;4.07;;;14.30;90.40;;;;;;5072525;28;20029;-70
2021/05/25 01:01:51;;;;;;;8.57;4.38;;;14.30;90.50;;;;;;5072058;28;20028;-70
2021/05/25 01:04:17;;;;;;;4.32;3.90;;;14.30;90.60;;;;;;5073035;28;20029;-70
2021/05/25 01:06:43;;;;;;;8.48;4.55;;;14.30;90.60;;;;;;5074572;28;20025;-70
2021/05/25 01:09:09;;;;;;;6.93;3.95;;;14.30;90.60;;;;;;5074754;28;20444;-70
2021/05/25 01:11:38;;;;;;;6.65;4.43;;;14.30;90.60;;;;;;5074831;28;20024;-70
2021/05/25 01:14:04;;;;;;;7.55;4.82;;;14.30;90.60;;;;;;5074267;28;20074;-70
2021/05/25 01:16:30;;;;;;;9.52;4.75;;;14.30;90.70;;;;;;5073320;28;20397;-70
2021/05/25 01:18:57;;;;;;;7.38;4.57;;;14.20;90.70;;;;;;5075040;28;20024;-70
2021/05/25 01:21:25;;;;;;;5.30;4.28;;;14.20;90.80;;;;;;5074402;28;20024;-69
2021/05/25 01:23:51;;;;;;;7.40;5.05;;;14.20;90.80;;;;;;5074482;28;20021;-70
2021/05/25 01:26:18;;;;;;;9.25;4.72;;;14.20;90.90;;;;;;5074358;28;20041;-70
2021/05/25 01:28:46;;;;;;;7.22;4.80;;;14.20;90.90;;;;;;5074211;28;20025;-69
2021/05/25 01:31:12;;;;;;;7.22;4.93;;;14.20;90.90;;;;;;5074459;28;20118;-70
2021/05/25 01:33:38;;;;;;;8.25;4.25;;;14.20;90.90;;;;;;5074420;28;20028;-70
2021/05/25 01:36:11;;;;;;;6.90;4.05;;;14.20;90.90;;;;;;5074055;28;20548;-70
2021/05/25 01:38:37;;;;;;;;;;;14.20;90.90;;;;;;5074609;28;20110;-70
2021/05/25 01:41:05;;;;;;;5.30;2.97;;;14.20;91.20;;;;;;5074111;28;20279;-70
2021/05/25 01:43:31;;;;;;;4.10;2.70;;;14.20;90.80;;;;;;5073917;28;20024;-69
2021/05/25 01:45:57;;;;;;;7.80;2.70;;;14.20;90.80;;;;;;5074260;28;20038;-70
2021/05/25 01:48:22;;;;;;;6.80;2.47;;;14.20;90.90;;;;;;5073942;28;20095;-70
2021/05/25 01:50:49;;;;;;;4.32;2.30;;;14.20;90.90;;;;;;5073573;28;20020;-69
2021/05/25 01:53:17;;;;;;;4.82;2.00;;;14.20;90.90;;;;;;5073986;28;20531;-70
2021/05/25 01:55:54;;;;;;;4.70;2.10;;;14.30;90.90;;;;;;5073385;28;20068;-70
2021/05/25 01:58:32;;;;;;;4.00;1.83;;;14.30;90.80;;;;;;5073617;28;20054;-70
2021/05/25 02:01:05;;;;;;;4.78;1.58;;;14.20;90.80;;;;;;5073733;28;20066;-70
2021/05/25 02:03:30;;;;;;;;;;;14.30;90.90;;;;;;5074270;28;20020;-70
2021/05/25 02:05:57;;;;;;;4.03;1.63;;;14.20;90.80;;;;;;5074016;28;20007;-70
2021/05/25 02:08:24;;;;;;;2.72;1.60;;;14.20;90.80;;;;;;5073737;28;20170;-70
2021/05/25 02:10:55;;;;;;;5.47;1.60;;;14.30;90.80;;;;;;5073531;28;20031;-70
2021/05/25 02:13:26;;;;;;;3.22;1.60;;;14.30;90.80;;;;;;5073591;28;20027;-70
2021/05/25 02:15:55;;;;;;;2.88;1.50;;;14.30;90.80;;;;;;5073199;28;20021;-70
2021/05/25 02:18:23;;;;;;;5.57;1.65;;;14.30;90.80;;;;;;5072803;28;20029;-69
2021/05/25 02:20:52;;;;;;;3.95;1.63;;;14.30;90.80;;;;;;5073293;28;20408;-70
2021/05/25 02:23:19;;;;;;;7.15;2.22;;;14.30;90.80;;;;;;5073506;28;20025;-70
2021/05/25 02:25:45;;;;;;;2.28;1.40;;;14.30;90.80;;;;;;5073545;28;20028;-70
2021/05/25 02:28:11;;;;;;;4.85;1.20;;;14.30;90.70;;;;;;5073475;28;20020;-70
2021/05/25 02:30:38;;;;;;;7.30;1.48;;;14.30;90.70;;;;;;5073279;28;20036;-70
2021/05/25 02:33:07;;;;;;;4.00;1.40;;;14.40;90.70;;;;;;5073532;28;20602;-69
2021/05/25 02:35:37;;;;;;;4.55;1.20;;;14.40;90.70;;;;;;5073287;28;20020;-70
2021/05/25 02:38:05;;;;;;;3.80;1.27;;;14.40;90.60;;;;;;5073044;28;20036;-70
2021/05/25 02:40:31;;;;;;;5.72;1.55;;;14.40;90.60;;;;;;5073273;28;20388;-69
2021/05/25 02:42:57;;;;;;;5.53;1.17;;;14.40;90.60;;;;;;5073115;28;20099;-69
2021/05/25 02:45:23;;;;;;;1.65;1.02;;;14.40;90.50;;;;;;5073221;28;20058;-70
2021/05/25 02:47:49;;;;;;;2.20;0.70;;;14.30;90.50;;;;;;5073621;28;20033;-69
2021/05/25 02:50:15;;;;;;;2.38;0.80;;;14.30;90.50;;;;;;5073122;28;20024;-69
2021/05/25 02:52:43;;;;;;;3.58;0.82;;;14.30;90.50;;;;;;5073050;28;20452;-69
2021/05/25 02:55:15;;;;;;;4.28;0.90;;;14.30;90.40;;;;;;5073183;28;20055;-70
2021/05/25 02:57:41;;;;;;;3.25;1.00;;;14.30;90.40;;;;;;5073103;28;20025;-70
2021/05/25 03:00:09;;;;;;;1.50;0.82;;;14.30;90.40;;;;;;5073009;28;20484;-69
2021/05/25 03:02:35;;;;;;;4.07;1.00;;;14.30;90.40;;;;;;5072916;28;20035;-70
2021/05/25 03:05:01;;;;;;;2.22;0.80;;;14.20;90.40;;;;;;5073020;28;20103;-70
2021/05/25 03:07:27;;;;;;;2.17;1.00;;;14.30;90.60;;;;;;5072914;28;20088;-69
2021/05/25 03:09:52;;;;;;;2.72;0.70;;;14.20;90.50;;;;;;5072945;28;20457;-70
2021/05/25 03:12:18;;;;;;;7.05;0.70;;;14.20;90.50;;;;;;5072845;28;20032;-69
2021/05/25 03:14:44;;;;;;;4.70;0.80;;;14.20;90.70;;;;;;5073067;28;20028;-69
2021/05/25 03:17:09;;;;;;;3.08;0.70;;;14.30;90.40;;;;;;5072931;28;20040;-69
2021/05/25 03:19:35;;;;;;;2.10;0.70;;;14.20;90.30;;;;;;5072841;28;20534;-71
2021/05/25 03:22:01;;;;;;;1.33;0.55;;;14.20;90.40;;;;;;5073032;28;20046;-70
2021/05/25 03:24:27;;;;;;;1.50;0.70;;;14.20;90.40;;;;;;5072966;28;20104;-69
2021/05/25 03:26:52;;;;;;;2.17;0.85;;;14.30;90.50;;;;;;5072836;28;20490;-69
2021/05/25 03:29:18;;;;;;;2.30;0.82;;;14.20;90.50;;;;;;5073965;28;20082;-70
2021/05/25 03:31:44;;;;;;;3.50;0.80;;;14.30;90.50;;;;;;5076848;28;20029;-70
2021/05/25 03:34:10;;;;;;;2.35;0.68;;;14.20;90.50;;;;;;5076923;28;20464;-69
2021/05/25 03:36:36;;;;;;;2.67;0.80;;;14.30;90.50;;;;;;5077016;28;20044;-70
2021/05/25 03:39:04;;;;;;;2.03;0.80;;;14.30;90.50;;;;;;5076696;28;20033;-70
2021/05/25 03:41:31;;;;;;;1.50;0.70;;;14.30;90.40;;;;;;5076661;28;20024;-69
2021/05/25 03:43:57;;;;;;;3.38;1.00;;;14.30;90.30;;;;;;5076818;28;20071;-70
2021/05/25 03:46:23;;;;;;;2.63;0.90;;;14.20;90.30;;;;;;5076449;28;20097;-69
2021/05/25 03:48:48;;;;;;;2.95;0.93;;;14.20;90.40;;;;;;5076327;28;20024;-69
2021/05/25 03:51:14;;;;;;;4.90;1.10;;;14.20;90.50;;;;;;5076421;28;20069;-69
2021/05/25 03:53:40;;;;;;;5.53;1.40;;;14.20;90.60;;;;;;5076414;28;20021;-69
2021/05/25 03:56:32;;;;;;;2.97;1.52;;;14.20;90.60;;;;;;5076076;28;20045;-69
2021/05/25 03:58:53;;;;;;;2.03;1.20;;;14.20;90.60;;;;;;5075937;28;20082;-69
2021/05/25 04:01:27;;;;;;;4.07;1.83;;;14.20;90.60;;;;;;5076370;28;20031;-69
2021/05/25 04:03:54;;;;;;;3.60;1.50;;;14.20;90.60;;;;;;5076157;28;20055;-69
2021/05/25 04:06:21;;;;;;;6.25;1.30;;;14.20;90.60;;;;;;5076226;28;20039;-69
2021/05/25 04:08:48;;;;;;;4.35;1.70;;;14.20;90.60;;;;;;5076086;28;20029;-70
2021/05/25 04:11:14;;;;;;;7.78;1.67;;;14.20;90.70;;;;;;5075904;28;20031;-70
2021/05/25 04:13:40;;;;;;;3.88;1.60;;;14.20;90.70;;;;;;5075898;28;20031;-70
2021/05/25 04:16:12;;;;;;;2.92;1.67;;;14.20;90.70;;;;;;5075501;28;20034;-69
2021/05/25 04:18:38;;;;;;;1.60;1.50;;;14.20;90.70;;;;;;5075949;28;20040;-70
2021/05/25 04:21:04;;;;;;;11.45;2.05;;;14.30;90.70;;;;;;5075827;28;20104;-69
2021/05/25 04:23:30;;;;;;;4.00;1.20;;;14.20;90.70;;;;;;5075660;28;20052;-70
2021/05/25 04:25:56;;;;;;;3.35;1.30;;;14.30;90.70;;;;;;5075457;28;20025;-69
2021/05/25 04:28:22;;;;;;;4.60;1.23;;;14.30;90.70;;;;;;5075333;28;20066;-70
2021/05/25 04:30:49;;;;;;;3.95;1.10;;;14.30;90.70;;;;;;5075205;28;20052;-69
2021/05/25 04:33:15;;;;;;;2.72;1.15;;;14.30;90.60;;;;;;5075605;28;20024;-70
2021/05/25 04:35:41;;;;;;;2.17;1.25;;;14.30;90.60;;;;;;5075579;28;20078;-70
2021/05/25 04:38:06;;;;;;;2.67;1.10;;;14.30;90.50;;;;;;5075353;28;20040;-70
2021/05/25 04:40:33;;;;;;;4.22;1.00;;;14.30;90.40;;;;;;5074812;28;20028;-70
2021/05/25 04:43:00;;;;;;;1.50;1.17;;;14.30;90.50;;;;;;5075409;28;20029;-70
2021/05/25 04:45:26;;;;;;;1.35;0.80;;;14.30;90.50;;;;;;5075771;28;20060;-70
2021/05/25 04:47:52;;;;;;;4.13;1.15;;;14.30;90.40;;;;;;5075452;28;20020;-69
2021/05/25 04:50:19;;;;;;;2.65;1.05;;;14.30;90.40;;;;;;5075006;28;20496;-69
2021/05/25 04:52:46;;;;;;;3.33;1.25;;;14.30;90.50;;;;;;5075500;28;20024;-69
2021/05/25 04:55:14;;;;;;;2.45;1.08;;;14.30;90.50;;;;;;5074938;28;20052;-70
2021/05/25 04:57:41;;;;;;;3.85;1.40;;;14.40;90.60;;;;;;5075007;28;20063;-70
2021/05/25 05:00:10;;;;;;;3.40;1.48;;;14.40;90.60;;;;;;5074892;28;20404;-69
2021/05/25 05:02:36;;;;;;;5.72;1.65;;;14.40;90.60;;;;;;5075041;28;20029;-70
2021/05/25 05:05:02;;;;;;;2.38;1.50;;;14.40;90.70;;;;;;5075179;28;20028;-70
2021/05/25 05:07:28;;;;;;;3.80;1.60;;;14.40;90.70;;;;;;5075222;28;20033;-70
2021/05/25 05:09:53;;;;;;;5.82;1.70;;;14.40;90.70;;;;;;5075042;28;20051;-70
2021/05/25 05:12:19;;;;;;;1.92;1.70;;;14.40;90.70;;;;;;5074859;28;20020;-69
2021/05/25 05:14:45;;;;;;;3.75;2.20;;;14.40;90.70;;;;;;5073653;28;20472;-69
2021/05/25 05:17:11;;;;;;;5.57;2.05;;;14.40;90.70;;;;;;5074822;28;20028;-69
2021/05/25 05:19:36;;;;;;;4.30;1.95;;;14.40;90.70;;;;;;5074716;28;20025;-70
2021/05/25 05:22:02;;;;;;;6.03;2.35;;;14.40;90.70;;;;;;5074697;28;20031;-69
2021/05/25 05:24:28;;;;;;;4.68;2.47;;;14.50;90.70;;;;;;5074459;28;20488;-69
2021/05/25 05:26:54;;;;;;;4.40;2.30;;;14.50;90.70;;;;;;5074730;28;20033;-69
2021/05/25 05:29:19;;;;;;;12.15;2.92;;;14.50;90.70;;;;;;5074701;28;20029;-69
2021/05/25 05:31:45;;;;;;;4.32;2.65;;;14.50;90.60;;;;;;5074732;28;20443;-69
2021/05/25 05:34:12;;;;;;;4.38;2.38;;;14.50;90.60;;;;;;5074627;28;20025;-70
2021/05/25 05:36:38;;;;;;;3.03;2.28;;;14.60;90.60;;;;;;5074364;28;20036;-71
2021/05/25 05:39:04;;;;;;;5.05;2.00;;;14.60;90.50;;;;;;5074139;28;20028;-69
2021/05/25 05:41:30;;;;;;;4.57;2.03;;;14.60;90.40;;;;;;5074577;28;20024;-70
2021/05/25 05:43:57;;;;;;;3.13;2.35;;;14.60;90.40;;;;;;5074319;28;20469;-69
2021/05/25 05:46:24;;;;;;;4.28;2.30;;;14.60;90.40;;;;;;5074179;28;20460;-69
2021/05/25 05:48:50;;;;;;;6.57;2.80;;;14.60;90.40;;;;;;5074822;28;20036;-69
2021/05/25 05:51:17;;;;;;;4.03;2.47;;;14.70;91.30;;;;;;5074958;28;20024;-70
2021/05/25 05:53:42;;;;;;;5.63;2.95;;;14.70;90.30;;;;;;5073323;28;20103;-70
2021/05/25 05:56:08;;;;;;;4.68;2.88;;;14.70;90.20;;;;;;5073717;28;20127;-70
2021/05/25 05:58:34;;;;;;;4.53;2.80;;;14.70;90.20;;;;;;5073922;28;20115;-70
2021/05/25 06:00:59;;;;;;;6.25;2.25;;;14.70;90.20;;;;;;5074031;28;20063;-70
2021/05/25 06:03:25;;;;;;;3.35;2.30;;;14.70;90.20;;;;;;5074098;28;20028;-69
2021/05/25 06:05:51;;;;;;;4.45;2.20;;;14.70;90.10;;;;;;5073504;28;20028;-70
2021/05/25 06:08:17;;;;;;;6.13;2.45;;;14.80;90.10;;;;;;5073833;28;20529;-70
2021/05/25 06:10:50;;;;;;;3.83;2.25;;;14.80;90.00;;;;;;5073951;28;20036;-70
2021/05/25 06:13:20;;;;;;;6.65;2.50;;;14.80;90.00;;;;;;5073335;28;20070;-69
2021/05/25 06:15:46;;;;;;;5.97;2.78;;;14.90;90.00;;;;;;5073863;28;20031;-69
2021/05/25 06:18:13;;;;;;;5.72;2.65;;;14.80;90.00;;;;;;5073736;28;20056;-70
2021/05/25 06:20:38;;;;;;;9.32;2.78;;;14.80;89.90;;;;;;5073633;28;20115;-70
2021/05/25 06:23:04;;;;;;;3.78;2.47;;;14.80;89.80;;;;;;5073566;28;20447;-72
2021/05/25 06:25:30;;;;;;;8.80;2.78;;;14.90;89.80;;;;;;5073701;28;20024;-71
2021/05/25 06:27:56;;;;;;;8.35;3.42;;;14.90;89.80;;;;;;5072383;28;20048;-71
2021/05/25 06:30:22;;;;;;;9.52;3.30;;;14.90;89.80;;;;;;5071380;28;20542;-71
2021/05/25 06:32:48;;;;;;;5.45;2.63;;;14.90;89.80;;;;;;5070590;28;20025;-71
2021/05/25 06:35:16;;;;;;;5.00;2.42;;;15.00;89.90;;;;;;5028342;28;20037;-72
2021/05/25 06:37:42;;;;;;;3.25;2.72;;;15.00;90.30;;;;;;5052876;28;20111;-72
2021/05/25 06:40:09;;;;;;;3.58;2.70;;;15.00;90.00;;;;;;5052762;28;20388;-71
2021/05/25 06:42:34;;;;;;;4.57;3.03;;;15.00;90.00;;;;;;5052856;28;20021;-71
2021/05/25 06:45:00;;;;;;;3.85;2.80;;;15.00;90.20;;;;;;5063809;28;20476;-71
2021/05/25 06:47:26;;;;;;;6.22;2.90;;;15.00;90.30;;;;;;5072646;28;20028;-71
2021/05/25 06:49:53;;;;;;;5.13;2.75;;;15.00;90.20;;;;;;5072387;28;20055;-71
2021/05/25 06:52:19;;;;;;;7.30;2.83;;;15.10;90.10;;;;;;5072616;28;20117;-71
2021/05/25 06:54:45;;;;;;;6.22;3.15;;;15.00;90.20;;;;;;5072871;28;20087;-71
2021/05/25 06:57:11;;;;;;;6.38;2.80;;;15.10;90.20;;;;;;5072854;28;20033;-71
2021/05/25 06:59:37;;;;;;;4.30;2.60;;;15.10;90.20;;;;;;5072650;28;20093;-71
2021/05/25 07:02:04;;;;;;;4.47;3.25;;;15.10;90.10;;;;;;5072832;28;20032;-71
2021/05/25 07:04:29;;;;;;;6.03;3.03;;;15.10;90.10;;;;;;5072384;28;20028;-70
2021/05/25 07:06:55;;;;;;;6.90;3.25;;;15.20;90.20;;;;;;5072950;28;20081;-71
2021/05/25 07:09:21;;;;;;;7.40;3.25;;;15.20;90.10;;;;;;5072800;28;20032;-70
2021/05/25 07:11:47;;;;;;;9.05;2.83;;;15.20;90.00;;;;;;5072550;28;20028;-70
2021/05/25 07:14:12;;;;;;;7.03;2.38;;;15.20;89.80;;;;;;5072733;28;20472;-70
2021/05/25 07:16:38;;;;;;;6.07;2.47;;;15.20;89.60;;;;;;5072459;28;20480;-71
2021/05/25 07:19:04;;;;;;;5.65;2.55;;;15.20;89.40;;;;;;5072474;28;20028;-71
2021/05/25 07:21:29;;;;;;;4.05;2.17;;;15.20;89.30;;;;;;5072635;28;20468;-70
2021/05/25 07:23:55;;;;;;;8.20;2.42;;;15.20;89.30;;;;;;5072439;28;20067;-70
2021/05/25 07:26:22;;;;;;;4.63;2.67;;;15.20;89.40;;;;;;5072685;28;20032;-70
2021/05/25 07:28:48;;;;;;;6.72;2.58;;;15.20;89.80;;;;;;5071609;28;20025;-71
2021/05/25 07:31:15;;;;;;;5.25;2.40;;;15.20;89.70;;;;;;5071354;28;20387;-71
2021/05/25 07:33:41;;;;;;;3.95;2.20;;;15.30;89.40;;;;;;5071655;28;20549;-71
2021/05/25 07:36:07;;;;;;;8.10;2.47;;;15.30;89.50;;;;;;5071486;28;20021;-71
2021/05/25 07:38:32;;;;;;;4.15;2.05;;;15.20;89.60;;;;;;5072351;28;20059;-71
2021/05/25 07:40:58;;;;;;;5.78;2.80;;;15.20;89.70;;;;;;5072384;28;20063;-70
2021/05/25 07:43:24;;;;;;;5.03;2.30;;;15.30;89.80;;;;;;5072460;28;20029;-71
2021/05/25 07:45:50;;;;;;;6.18;2.30;;;15.20;90.00;;;;;;5072163;28;20488;-70
2021/05/25 07:48:15;;;;;;;13.98;2.85;;;15.30;90.00;;;;;;5071978;28;20048;-70
2021/05/25 07:50:42;;;;;;;5.40;2.65;;;15.30;89.90;;;;;;5072110;28;20059;-71
2021/05/25 07:53:08;;;;;;;4.88;2.67;;;15.30;89.70;;;;;;5072799;28;20033;-70
2021/05/25 07:55:34;;;;;;;6.38;2.58;;;15.40;89.90;;;;;;5072327;28;20416;-70
2021/05/25 07:58:00;;;;;;;5.50;3.10;;;15.40;89.90;;;;;;5072388;28;20432;-71
2021/05/25 08:00:27;;;;;;;3.78;3.03;;;15.50;89.80;;;;;;5072218;28;20028;-71
2021/05/25 08:02:54;;;;;;;4.90;2.83;;;15.60;89.80;;;;;;5071960;28;20531;-71
2021/05/25 08:05:21;;;;;;;6.72;3.00;;;15.60;90.00;;;;;;5070698;28;20482;-70
2021/05/25 08:07:47;;;;;;;5.22;2.65;;;15.80;90.00;;;;;;5070479;28;20068;-70
2021/05/25 08:10:14;;;;;;;10.00;2.90;;;15.80;90.00;;;;;;5071233;28;20097;-71
2021/05/25 08:12:40;;;;;;;5.65;2.80;;;15.90;89.40;;;;;;5071662;28;20464;-70
2021/05/25 08:15:08;;;;;;;4.70;3.22;;;16.00;88.90;;;;;;5072260;28;20031;-66
2021/05/25 08:20:16;;;;;;;8.38;2.95;;;16.00;89.80;;;;;;5076201;28;20042;-64
2021/05/25 08:22:48;;;;;;;7.05;3.58;;;16.00;89.00;;;;;;5076034;28;20032;-67
2021/05/25 08:28:26;;;;;;;6.40;3.50;;;16.00;88.40;;;;;;5929517;22;20001;-63
2021/05/25 08:30:52;;;;;;;7.38;3.40;;;16.00;88.90;;;;;;5040453;23;20563;-68
2021/05/25 08:33:18;;;;;;;6.68;3.58;;;16.00;89.00;;;;;;5035785;28;20108;-70
2021/05/25 08:35:45;;;;;;;8.88;4.03;;;16.00;88.80;;;;;;5035666;28;20032;-68
2021/05/25 08:38:15;;;;;;;6.03;4.22;;;15.90;88.70;;;;;;5035611;28;20034;-67
2021/05/25 08:40:41;;;;;;;7.68;3.90;;;16.00;88.90;;;;;;5035874;28;20401;-70
2021/05/25 08:43:07;;;;;;;5.93;3.60;;;16.00;89.10;;;;;;5035465;28;20075;-70
2021/05/25 08:45:33;;;;;;;5.18;3.65;;;16.00;89.30;;;;;;5035566;28;20430;-70
2021/05/25 08:47:59;;;;;;;8.02;4.03;;;16.00;89.50;;;;;;5035611;28;20025;-70
2021/05/25 08:50:29;;;;;;;6.50;4.03;;;16.00;89.50;;;;;;5035896;28;20393;-68
2021/05/25 08:53:00;;;;;;;9.73;4.00;;;16.00;89.60;;;;;;5035439;28;20033;-68
2021/05/25 08:55:28;;;;;;;4.60;3.45;;;16.00;89.70;;;;;;5035646;28;20029;-68
2021/05/25 08:57:53;;;;;;;6.00;3.70;;;16.00;89.70;;;;;;5035338;28;20037;-67
2021/05/25 09:00:19;;;;;;;7.40;4.70;;;16.00;89.60;;;;;;5035512;28;20408;-69
2021/05/25 09:02:45;;;;;;;6.40;4.18;;;16.00;89.00;;;;;;5035247;28;20500;-70
2021/05/25 09:05:19;;;;;;;8.90;3.83;;;16.10;89.10;;;;;;5035477;28;20116;-70
2021/05/25 09:07:52;;;;;;;5.40;3.67;;;16.10;89.30;;;;;;5035189;28;20026;-70
2021/05/25 09:10:22;;;;;;;5.05;3.42;;;16.10;89.90;;;;;;5035235;28;20059;-70
2021/05/25 09:12:53;;;;;;;7.18;3.40;;;16.10;90.20;;;;;;5035073;28;20033;-67
2021/05/25 09:15:31;;;;;;;4.93;2.90;;;16.10;90.10;;;;;;5035057;28;20420;-70
2021/05/25 09:18:08;;;;;;;4.45;3.20;;;16.10;89.80;;;;;;5035130;28;20041;-70
2021/05/25 09:20:51;;;;;;;7.50;3.25;;;16.10;89.60;;;;;;5034894;28;20481;-70
2021/05/25 09:23:20;;;;;;;7.05;3.40;;;16.10;89.00;;;;;;5034777;28;20054;-69
2021/05/25 09:28:33;;;;;;;3.45;2.58;;;16.10;89.50;;;;;;5034702;28;20033;-70
2021/05/25 09:30:59;;;;;;;5.88;2.20;;;16.10;89.40;;;;;;5049639;28;20053;-71
2021/05/25 09:33:24;;;;;;;2.47;1.70;;;16.10;88.00;;;;;;5034808;28;20030;-71
2021/05/25 09:35:52;;;;;;;6.57;2.05;;;16.10;87.90;;;;;;5034781;28;20080;-71
2021/05/25 09:38:28;;;;;;;3.97;1.98;;;16.10;88.10;;;;;;5034401;28;20040;-71
2021/05/25 09:41:00;;;;;;;5.53;1.90;;;16.20;87.80;;;;;;5034663;28;20021;-71
2021/05/25 09:43:29;;;;;;;5.35;1.90;;;16.20;87.20;;;;;;5034352;28;20040;-70
2021/05/25 09:45:54;;;;;;;4.00;1.83;;;16.20;86.70;;;;;;5034657;28;20033;-70
2021/05/25 09:48:20;;;;;;;2.38;1.50;;;16.20;86.90;;;;;;5034164;28;20096;-70
2021/05/25 09:50:46;;;;;;;2.78;1.80;;;16.20;86.40;;;;;;5034184;28;20025;-71
2021/05/25 09:53:19;;;;;;;4.18;1.77;;;16.30;86.60;;;;;;5034285;28;20084;-70
2021/05/25 09:56:08;;;;;;;3.53;1.38;;;16.30;86.00;;;;;;5034476;28;20029;-72
2021/05/25 09:58:34;;;;;;;2.60;1.40;;;16.20;86.20;;;;;;5033745;28;20430;-70
2021/05/25 10:01:01;;;;;;;3.50;1.17;;;16.20;86.50;;;;;;5034059;28;20044;-70
2021/05/25 10:03:28;;;;;;;4.45;1.13;;;16.20;86.00;;;;;;5034023;28;20371;-69
2021/05/25 10:05:56;;;;;;;2.80;1.20;;;16.20;85.60;;;;;;5033851;28;20465;-69
2021/05/25 10:08:24;;;;;;;5.78;2.53;;;16.20;85.70;;;;;;5034077;28;20022;-68
2021/05/25 10:10:55;;;;;;;1.75;1.00;;;16.20;85.90;;;;;;5033992;28;20029;-67
2021/05/25 10:13:23;;;;;;;3.05;1.00;;;16.20;86.30;;;;;;5033831;28;20034;-67
2021/05/25 10:15:49;;;;;;;3.88;1.35;;;16.20;86.00;;;;;;5033967;28;20053;-67
2021/05/25 10:21:07;;;;;;;2.35;1.35;;;16.20;85.60;;;;;;5033320;28;20476;-67
2021/05/25 10:23:34;;;;;;;5.00;1.40;;;16.30;86.10;;;;;;5033550;28;20465;-68
2021/05/25 10:26:07;;;;;;;3.42;1.35;;;16.30;86.70;;;;;;5033493;28;20057;-67
2021/05/25 10:28:35;;;;;;;4.30;1.20;;;16.40;86.80;;;;;;5033878;28;20029;-75
2021/05/25 10:31:02;;;;;;;3.70;1.38;;;16.50;86.10;;;;;;5033549;28;20087;-67
2021/05/25 10:33:29;;;;;;;2.15;1.27;;;16.50;85.30;;;;;;5033508;28;20489;-67
2021/05/25 10:35:59;;;;;;;5.18;1.27;;;16.50;84.70;;;;;;5033552;28;20485;-67
2021/05/25 10:38:34;;;;;;;2.30;1.08;;;16.50;84.90;;;;;;5033175;28;20037;-67
2021/05/25 10:41:03;;;;;;;4.57;1.42;;;16.60;85.20;;;;;;5033544;28;20036;-67
2021/05/25 10:43:32;;;;;;;5.95;1.40;;;16.70;85.10;;;;;;5033306;28;20040;-67
2021/05/25 10:46:28;;;;;;;2.40;1.42;;;16.70;84.70;;;;;;5033394;28;20076;-67
2021/05/25 10:49:05;;;;;;;2.95;1.20;;;16.70;85.30;;;;;;5028563;28;20034;-67
2021/05/25 10:51:49;;;;;;;2.13;1.15;;;16.80;85.10;;;;;;5033356;28;20018;-68
2021/05/25 10:54:23;;;;;;;5.03;1.20;;;16.80;84.60;;;;;;5032644;28;20029;-69
2021/05/25 10:56:49;;;;;;;3.03;1.13;;;16.90;84.30;;;;;;5032718;28;20500;-69
2021/05/25 10:59:16;;;;;;;2.40;1.02;;;16.90;84.10;;;;;;5032911;28;20030;-67
2021/05/25 11:01:42;;;;;;;1.95;1.08;;;16.90;83.70;;;;;;5032957;28;20389;-67
2021/05/25 11:04:09;;;;;;;3.33;1.00;;;16.90;83.40;;;;;;5032746;28;20029;-67
2021/05/25 11:06:36;;;;;;;2.33;1.20;;;16.90;82.60;;;;;;5032572;28;20030;-67
2021/05/25 11:09:23;;;;;;;2.95;1.27;;;16.90;82.90;;;;;;5033288;28;20094;-67
2021/05/25 11:12:08;;;;;;;3.03;0.90;;;16.90;82.00;;;;;;5032891;28;20079;-74
2021/05/25 11:14:34;;;;;;;3.30;1.10;;;16.90;83.10;;;;;;5032792;28;20079;-67
2021/05/25 11:17:32;;;;;;;1.98;1.00;;;17.00;83.30;;;;;;5032870;28;20033;-67
2021/05/25 11:21:06;;;;;;;2.05;0.90;;;17.00;81.40;;;;;;5032499;28;20105;-67
2021/05/25 11:23:42;;;;;;;;;;;17.00;82.10;;;;;;5033373;28;20488;-73
2021/05/25 11:26:09;;;;;;;3.00;1.10;;;17.10;81.80;;;;;;5032759;28;19992;-67
2021/05/25 11:29:12;;;;;;;2.75;1.00;;;17.10;81.20;;;;;;5033196;28;20061;-67
2021/05/25 11:31:38;;;;;;;;;;;17.20;80.90;;;;;;5033304;28;20046;-67
2021/05/25 11:34:05;;;;;;;4.20;1.20;;;17.20;80.90;;;;;;5032930;28;19909;-67
2021/05/25 11:36:31;;;;;;;6.72;1.13;;;17.30;81.90;;;;;;5032915;28;20505;-67
2021/05/25 11:38:57;;;;;;;2.28;1.00;;;17.30;81.10;;;;;;5032505;28;20033;-67
2021/05/25 11:41:23;;;;;;;5.40;0.98;;;17.40;81.70;;;;;;5032593;28;20024;-67
2021/05/25 11:44:00;;;;;;;2.28;0.88;;;17.40;80.20;;;;;;5032893;28;20018;-67
2021/05/25 11:46:44;;;;;;;1.63;0.80;;;17.50;79.00;;;;;;5032898;28;20029;-69
2021/05/25 11:49:11;;;;;;;2.65;0.90;;;17.50;78.50;;;;;;5032359;28;20097;-67
2021/05/25 11:51:37;;;;;;;2.75;1.25;;;17.50;79.10;;;;;;5034280;28;20087;-67
2021/05/25 11:54:21;;;;;;;2.10;0.80;;;17.60;79.10;;;;;;5036629;28;20032;-67
2021/05/25 11:56:51;;;;;;;1.30;1.20;;;17.70;78.60;;;;;;5036772;28;20116;-66
2021/05/25 11:59:22;;;;;;;2.88;1.13;;;17.80;79.30;;;;;;5036522;28;20037;-66
2021/05/25 12:01:50;;;;;;;2.72;1.15;;;17.90;78.30;;;;;;5036378;28;20452;-67
2021/05/25 12:04:19;;;;;;;4.95;1.10;;;17.90;78.80;;;;;;5036519;28;20029;-66
2021/05/25 12:06:56;;;;;;;2.47;1.20;;;18.00;78.80;;;;;;5036586;28;20022;-66
2021/05/25 12:09:29;;;;;;;2.45;1.20;;;18.00;79.00;;;;;;5036139;28;20029;-66
2021/05/25 12:11:58;;;;;;;1.70;1.17;;;18.10;79.20;;;;;;5036238;28;20022;-66
2021/05/25 12:14:32;;;;;;;1.45;0.90;;;18.20;78.70;;;;;;5036558;28;20061;-66
2021/05/25 12:17:00;;;;;;;4.82;1.10;;;18.30;79.50;;;;;;5036152;28;20076;-67
2021/05/25 12:19:26;;;;;;;3.53;1.30;;;18.40;77.80;;;;;;5036188;28;20018;-66
2021/05/25 12:22:03;;;;;;;1.88;0.90;;;18.40;77.10;;;;;;5036085;28;20116;-66
2021/05/25 12:24:30;;;;;;;3.80;1.35;;;18.40;76.60;;;;;;5035731;28;20037;-66
2021/05/25 12:26:57;;;;;;;4.75;1.50;;;18.50;76.30;;;;;;5035492;28;20121;-66
2021/05/25 12:29:25;;;;;;;4.82;1.45;;;18.50;76.10;;;;;;5035756;28;20409;-66
2021/05/25 12:31:52;;;;;;;1.98;0.98;;;18.50;75.80;;;;;;5035643;28;20028;-66
2021/05/25 12:34:21;;;;;;;10.30;0.90;;;18.60;75.70;;;;;;5035038;28;20024;-66
2021/05/25 12:37:00;;;;;;;2.35;1.17;;;18.70;75.20;;;;;;5034840;28;20048;-66
2021/05/25 12:39:40;;;;;;;2.83;0.70;;;18.80;74.00;;;;;;5035385;28;20039;-66
2021/05/25 12:42:16;;;;;;;2.20;1.38;;;18.90;73.60;;;;;;5035322;28;20037;-66
2021/05/25 12:44:42;;;;;;;3.15;1.10;;;19.00;74.30;;;;;;5035348;28;20425;-66
2021/05/25 12:47:10;;;;;;;5.03;1.55;;;19.00;73.90;;;;;;5035221;28;20024;-66
2021/05/25 12:49:48;;;;;;;3.22;1.52;;;19.10;74.10;;;;;;5035164;28;20436;-66
2021/05/25 12:52:26;;;;;;;3.35;1.20;;;19.30;74.00;;;;;;5035212;28;20017;-66
2021/05/25 12:55:10;;;;;;;3.97;1.55;;;19.30;73.00;;;;;;5035502;28;20437;-66
2021/05/25 12:57:47;;;;;;;5.72;1.55;;;19.40;73.30;;;;;;5034357;28;20096;-66
2021/05/25 13:00:16;;;;;;;4.28;1.55;;;19.50;72.30;;;;;;5032471;28;20376;-73
2021/05/25 13:02:51;;;;;;;3.78;1.67;;;19.50;71.10;;;;;;5031620;28;20037;-70
2021/05/25 13:05:31;;;;;;;6.15;1.77;;;19.40;71.40;;;;;;5034362;28;20038;-66